• Join FlightAware (Why Join?)
  • Login
  • US Flag 
12:41PM EDT


 

Airport Tracker/Info


-or-


 

Live Flight TrackerFlight Track Log ✈ SWA558 ✈ 03-May-2013 ✈ KMDW - KAUS

Flight Track Log - Related Links

Times and Time Zones

All times are in EDT time to prevent confusion due to time zone crossing. See the SWA558 flight status page for this flight to view local times or setup timezone preferences in your user account.

Time Position Orientation Groundspeed Altitude Reporting Facility
EDT Latitude Longitude Course Direction KTS MPH feet Rate Location/Type
04:05PM 41.7878 -87.6803 121° Southeast 205 236 4,600  Level Chicago Center
04:06PM 41.7253 -87.7558 222° Southwest 252 290 8,800 3,480 Climbing Chicago Center
04:07PM 41.6708 -87.8267 224° Southwest 271 312 11,900 2,340 Climbing Chicago Center
04:08PM 41.6033 -87.9081 222° Southwest 335 386 13,700 2,400 Climbing Chicago Center
04:09PM 41.3688 -88.1764 207° Southwest  Level FlightAware Approximate
04:09PM 41.5125 -87.9631 204° Southwest 355 409 16,900  Level Chicago Center
04:10PM 41.4119 -88.0247 205° Southwest 365 420 19,800 2,340 Climbing Chicago Center
04:11PM 41.3136 -88.0819 204° Southwest 381 438 21,800 2,040 Climbing Chicago Center
04:12PM 41.2183 -88.1675 214° Southwest 411 473 24,100 2,220 Climbing Chicago Center
04:14PM 41.1267 -88.2631 218° Southwest 419 482 26,400 2,100 Climbing Chicago Center
04:15PM 41.0150 -88.3781 218° Southwest 425 489 28,500 1,740 Climbing Chicago Center
04:16PM 40.9183 -88.4742 217° Southwest 432 497 30,100 1,740 Climbing Chicago Center
04:17PM 40.8219 -88.5722 218° Southwest 438 504 32,100 1,920 Climbing Chicago Center
04:18PM 40.7269 -88.6689 218° Southwest 435 501 34,100 1,800 Climbing Chicago Center
04:19PM 40.6331 -88.7633 217° Southwest 428 493 35,900 1,800 Climbing Chicago Center
04:20PM 40.5369 -88.8583 217° Southwest 414 476 37,900 960 Climbing Chicago Center
04:21PM 40.4461 -88.9486 217° Southwest 409 471 38,000  Climbing Chicago Center
04:22PM 40.3561 -89.0389 217° Southwest 406 467 38,000  Level Chicago Center
04:23PM 40.2481 -89.1453 217° Southwest 403 464 38,000  Level Chicago Center
04:24PM 40.1578 -89.2319 216° Southwest 401 461 38,000  Level Chicago Center
04:25PM 40.0858 -89.3033 217° Southwest 399 459 38,000  Level Kansas City Center
04:26PM 39.9806 -89.4092 218° Southwest 399 459 38,000  Level Chicago Center
04:27PM 39.8908 -89.4956 216° Southwest 400 460 38,000  Level Chicago Center
04:28PM 39.8011 -89.5831 217° Southwest 400 460 38,000  Level Kansas City Center
04:29PM 39.7106 -89.6697 216° Southwest 402 463 38,000  Level Kansas City Center
04:30PM 39.6278 -89.7503 217° Southwest 404 465 38,000  Level Kansas City Center
04:31PM 39.5197 -89.8542 217° Southwest 404 465 38,000  Level Kansas City Center
04:32PM 39.4306 -89.9403 217° Southwest 403 464 38,000  Level Kansas City Center
04:33PM 39.3397 -90.0272 217° Southwest 405 466 38,000  Level Kansas City Center
04:34PM 39.2503 -90.1136 217° Southwest 404 465 38,000  Level Kansas City Center
04:35PM 39.1592 -90.2000 216° Southwest 406 467 38,000  Level Kansas City Center
04:36PM 39.0519 -90.3036 217° Southwest 405 466 38,000  Level Kansas City Center
04:37PM 38.9617 -90.3881 216° Southwest 404 465 38,000  Level Kansas City Center
04:38PM 38.8681 -90.4781 217° Southwest 395 455 38,000  Level Kansas City Center
04:39PM 38.7814 -90.5747 221° Southwest 407 468 38,000  Level Kansas City Center
04:40PM 38.6969 -90.6703 221° Southwest 403 464 38,000  Level Kansas City Center
04:41PM 38.6086 -90.7725 222° Southwest 403 464 38,000  Level Kansas City Center
04:42PM 38.5247 -90.8694 222° Southwest 407 468 38,000  Level Kansas City Center
04:43PM 38.4403 -90.9675 222° Southwest 411 473 38,000  Level Kansas City Center
04:44PM 38.3547 -91.0642 222° Southwest 410 472 38,000  Level Kansas City Center
04:45PM 38.2511 -91.1822 222° Southwest 415 478 38,000  Level Kansas City Center
04:46PM 38.1653 -91.2811 222° Southwest 418 481 38,000  Level Kansas City Center
04:48PM 38.0822 -91.3744 222° Southwest 404 465 38,000  Level Kansas City Center
04:49PM 37.9953 -91.4711 221° Southwest 406 467 38,000  Level Kansas City Center
04:50PM 37.9086 -91.5694 222° Southwest 413 475 38,000  Level Kansas City Center
04:51PM 37.8233 -91.6656 222° Southwest 409 471 38,000  Level Kansas City Center
04:52PM 37.7364 -91.7608 221° Southwest 410 472 38,000  Level Kansas City Center
04:53PM 37.6317 -91.8775 221° Southwest 413 475 38,000  Level Kansas City Center
04:54PM 37.5433 -91.9764 222° Southwest 418 481 38,000  Level Kansas City Center
04:55PM 37.4550 -92.0750 222° Southwest 420 483 38,000  Level Kansas City Center
04:56PM 37.3661 -92.1736 221° Southwest 421 484 38,000  Level Kansas City Center
04:57PM 37.2769 -92.2694 221° Southwest 419 482 38,000  Level Kansas City Center
04:58PM 37.1886 -92.3667 221° Southwest 418 481 38,000  Level Kansas City Center
04:59PM 37.1008 -92.4619 221° Southwest 416 479 38,000  Level Kansas City Center
05:00PM 37.0133 -92.5578 221° Southwest 414 476 38,000  Level Kansas City Center
05:01PM 36.9258 -92.6503 220° Southwest 411 473 38,000  Level Kansas City Center
05:02PM 36.8214 -92.7622 221° Southwest 410 472 38,000  Level Kansas City Center
05:03PM 36.7331 -92.8564 221° Southwest 413 475 38,000  Level Kansas City Center
05:04PM 36.6444 -92.9519 221° Southwest 417 480 38,000  Level Kansas City Center
05:05PM 36.5525 -93.0511 221° Southwest 419 482 38,000  Level Kansas City Center
05:06PM 36.4644 -93.1450 221° Southwest 419 482 38,100 660 Climbing Kansas City Center
05:07PM 36.3758 -93.2403 221° Southwest 421 484 39,400 900 Climbing Kansas City Center
05:08PM 36.2878 -93.3342 221° Southwest 421 484 40,000 240 Climbing Kansas City Center
05:09PM 36.1808 -93.4478 221° Southwest 427 491 40,000  Level Memphis Center
05:10PM 36.0889 -93.5419 220° Southwest 427 491 40,000  Level Memphis Center
05:11PM 35.9986 -93.6411 222° Southwest 427 491 40,000  Level Memphis Center
05:12PM 35.9044 -93.7372 220° Southwest 427 491 40,000  Level Memphis Center
05:13PM 35.8119 -93.8333 220° Southwest 433 498 40,000  Level Memphis Center
05:14PM 35.7197 -93.9267 219° Southwest 433 498 40,000  Level Memphis Center
05:15PM 35.6314 -94.0225 221° Southwest 433 498 40,000  Level Memphis Center
05:16PM 35.5347 -94.1175 219° Southwest 444 511 40,000  Level Memphis Center
05:17PM 35.4419 -94.2181 221° Southwest 444 511 40,000  Level Memphis Center
05:18PM 35.3456 -94.3050 216° Southwest 437 503 40,000  Level Memphis Center
05:19PM 35.2408 -94.3842 212° Southwest 443 510 40,000  Level Memphis Center
05:20PM 35.1339 -94.4628 211° Southwest 449 517 40,000  Level Memphis Center
05:21PM 35.0311 -94.5414 212° Southwest 449 517 40,000  Level Memphis Center
05:22PM 34.9803 -94.5881 217° Southwest 449 517 40,000  Level Fort Worth Center
05:23PM 34.8756 -94.6650 211° Southwest 449 517 40,000  Level Fort Worth Center
05:24PM 34.7833 -94.7386 213° Southwest 449 517 40,000  Level Fort Worth Center
05:25PM 34.6828 -94.8150 212° Southwest 449 517 40,000  Level Fort Worth Center
05:26PM 34.5800 -94.8914 211° Southwest 437 503 40,000  Level Fort Worth Center
05:27PM 34.4772 -94.9650 211° Southwest 437 503 40,000  Level Fort Worth Center
05:28PM 34.3742 -95.0408 211° Southwest 432 497 40,000  Level Fort Worth Center
05:29PM 34.2733 -95.1164 212° Southwest 432 497 40,000  Level Fort Worth Center
05:30PM 34.1725 -95.1919 212° Southwest 432 497 40,000  Level Fort Worth Center
05:31PM 34.0717 -95.2672 212° Southwest 432 497 40,000  Level Fort Worth Center
05:32PM 33.9664 -95.3425 211° Southwest 432 497 40,000  Level Fort Worth Center
05:33PM 33.8675 -95.4172 212° Southwest 432 497 40,000  Level Fort Worth Center
05:34PM 33.7642 -95.4922 211° Southwest 432 497 40,000  Level Fort Worth Center
05:35PM 33.6653 -95.5667 212° Southwest 432 497 40,000  Level Fort Worth Center
05:36PM 33.5619 -95.6411 211° Southwest 426 490 40,000  Level Fort Worth Center
05:37PM 33.4525 -95.7231 212° Southwest 426 490 40,000  Level Fort Worth Center
05:38PM 33.3614 -95.7869 210° Southwest 426 490 40,000  Level Fort Worth Center
05:39PM 33.2456 -95.8708 211° Southwest 431 496 40,000  Level Fort Worth Center
05:40PM 33.1525 -95.9394 212° Southwest 431 496 40,000  Level Fort Worth Center
05:41PM 33.0386 -96.0208 211° Southwest 436 502 40,000  Level Fort Worth Center
05:42PM 32.9350 -96.0942 211° Southwest 436 502 40,000  Level Fort Worth Center
05:43PM 32.8314 -96.1675 211° Southwest 436 502 40,000  Level Fort Worth Center
05:44PM 32.7278 -96.2406 211° Southwest 436 502 40,000  Level Fort Worth Center
05:45PM 32.6364 -96.3058 211° Southwest 441 507 40,000  Level Fort Worth Center
05:46PM 32.5222 -96.3883 211° Southwest 441 507 40,000 -180 Level Fort Worth Center
05:47PM 32.4289 -96.4536 211° Southwest 441 507 39,700 -660 Descending Fort Worth Center
05:48PM 32.3167 -96.5358 212° Southwest 441 507 38,700 -1,020 Descending Fort Worth Center
05:49PM 32.2108 -96.6056 209° Southwest 441 507 37,700 -1,020 Descending Fort Worth Center
05:50PM 32.1089 -96.6800 212° Southwest 436 502 36,700 -1,020 Descending Fort Worth Center
05:51PM 32.0050 -96.7544 211° Southwest 436 502 35,700 -960 Descending Fort Worth Center
05:52PM 31.9133 -96.8136 209° Southwest 424 488 34,800 -1,560 Descending Fort Worth Center
05:53PM 31.8114 -96.8853 211° Southwest 424 488 32,600 -1,740 Descending Fort Worth Center
05:54PM 31.7031 -96.9419 204° Southwest 424 488 31,400 -1,440 Descending Fort Worth Center
05:55PM 31.6161 -96.9886 205° Southwest 420 483 30,100 -1,860 Descending Houston Center
05:56PM 31.5122 -97.0450 205° Southwest 408 470 28,100 -1,920 Descending Houston Center
05:57PM 31.4131 -97.0983 205° Southwest 392 451 26,100 -2,220 Descending Houston Center
05:58PM 31.3156 -97.1511 205° Southwest 384 442 23,500 -2,340 Descending Houston Center
05:59PM 31.2175 -97.2036 205° Southwest 384 442 21,300 -2,160 Descending Houston Center
06:00PM 31.1017 -97.2506 199° South 376 433 19,000 -2,040 Descending Houston Center
06:01PM 31.0064 -97.2878 199° South 364 419 17,100 -1,920 Descending Houston Center
06:02PM 30.9144 -97.3239 199° South 362 417 15,100 -1,980 Descending Houston Center
06:03PM 30.8214 -97.3592 198° South 355 409 13,100 -1,500 Descending Houston Center
06:04PM 30.7136 -97.4014 199° South 347 399 12,000 -1,020 Descending Houston Center
06:05PM 30.6217 -97.4375 199° South 346 398 11,000 -900 Descending Houston Center
06:06PM 30.5342 -97.4700 198° South 332 382 10,200 -900 Descending Houston Center
06:07PM 30.4569 -97.4989 198° South 295 339 9,200 -1,080 Descending Houston Center
06:08PM 30.3803 -97.5292 199° South 288 331 8,000 -600 Descending Houston Center
06:09PM 30.2997 -97.5336 183° South 287 330 8,000 -420 Level Houston Center
06:10PM 30.2172 -97.5367 182° South 293 337 7,200 -540 Descending Houston Center
06:11PM 30.1314 -97.5431 184° South 266 306 6,900 -600 Descending Houston Center
06:12PM 30.0933 -97.5703 212° Southwest 184 212 6,000 -1,260 Descending Houston Center
06:13PM 30.0817 -97.6211 255° West 163 188 4,300 -1,680 Descending Houston Center
06:14PM 30.1033 -97.6539 307° West 149 171 2,500 -1,440 Descending Houston Center
06:15PM 30.1408 -97.6561 357° North 139 160 1,300 -720 Descending Houston Center
06:16PM 30.1761 -97.6581 357° North 138 159 1,100 -240 Descending Houston Center